Time;durP1;ratioP1;P1;durP2;ratioP2;P2;SDS_P1;SDS_P2;PMS_P1;PMS_P2;Temp;Humidity;BMP_temperature;BMP_pressure;BME280_temperature;BME280_humidity;BME280_pressure;Samples;Min_cycle;Max_cycle;Signal;HPM_P1;HPM_P2
2022/10/20 00:01:47;;;;;;;10.35;3.60;;;9.00;99.90;;;;;;5071481;28;20032;-82
2022/10/20 00:04:14;;;;;;;8.25;2.72;;;9.00;99.90;;;;;;5055505;28;20044;-82
2022/10/20 00:06:39;;;;;;;7.72;2.97;;;9.00;99.90;;;;;;5072010;28;20036;-82
2022/10/20 00:09:05;;;;;;;9.02;3.20;;;9.00;99.90;;;;;;5055348;28;20047;-82
2022/10/20 00:11:32;;;;;;;11.10;2.88;;;8.90;99.90;;;;;;5071694;28;20123;-82
2022/10/20 00:13:59;;;;;;;9.65;3.08;;;8.90;99.90;;;;;;5071891;28;20036;-82
2022/10/20 00:16:27;;;;;;;7.53;2.97;;;8.90;99.90;;;;;;5055523;28;20417;-82
2022/10/20 00:18:54;;;;;;;9.02;2.88;;;8.90;99.90;;;;;;5055519;28;20600;-82
2022/10/20 00:21:22;;;;;;;10.48;4.20;;;8.90;99.90;;;;;;5071618;28;20589;-82
2022/10/20 00:23:48;;;;;;;10.02;3.05;;;8.80;99.90;;;;;;5073073;28;20055;-82
2022/10/20 00:26:25;;;;;;;7.95;2.80;;;8.80;99.90;;;;;;5072126;28;20110;-82
2022/10/20 00:28:51;;;;;;;9.48;3.05;;;8.80;99.90;;;;;;5055379;28;20052;-82
2022/10/20 00:31:19;;;;;;;8.35;3.25;;;8.80;99.90;;;;;;5071643;28;20033;-81
2022/10/20 00:33:45;;;;;;;8.45;2.83;;;8.80;99.90;;;;;;5072144;28;20044;-82
2022/10/20 00:36:14;;;;;;;9.05;2.47;;;8.70;99.90;;;;;;5055290;28;20498;-82
2022/10/20 00:38:40;;;;;;;9.07;3.15;;;8.70;99.90;;;;;;5071719;28;20048;-82
2022/10/20 00:41:06;;;;;;;7.97;3.00;;;8.70;99.90;;;;;;5054654;28;20047;-82
2022/10/20 00:43:53;;;;;;;7.55;2.97;;;8.70;99.90;;;;;;5071941;28;20166;-82
2022/10/20 00:46:21;;;;;;;11.73;3.38;;;8.70;99.90;;;;;;5055003;28;20234;-82
2022/10/20 00:48:52;;;;;;;8.15;3.05;;;8.70;99.90;;;;;;5054901;28;20072;-81
2022/10/20 00:51:23;;;;;;;8.95;2.67;;;8.70;99.90;;;;;;5071405;28;20535;-81
2022/10/20 00:53:52;;;;;;;9.00;2.92;;;8.60;99.90;;;;;;5071397;28;20513;-82
2022/10/20 00:56:18;;;;;;;6.88;3.00;;;8.60;99.90;;;;;;5071615;28;20146;-82
2022/10/20 00:58:45;;;;;;;8.57;3.92;;;8.60;99.90;;;;;;5054688;28;20546;-82
2022/10/20 01:01:11;;;;;;;11.68;3.22;;;8.60;99.90;;;;;;5071111;28;20059;-81
2022/10/20 01:03:46;;;;;;;8.63;2.92;;;8.60;99.90;;;;;;5054695;28;20044;-82
2022/10/20 01:06:16;;;;;;;9.07;2.80;;;8.50;99.90;;;;;;5071303;28;20497;-82
2022/10/20 01:08:42;;;;;;;8.38;3.15;;;8.50;99.90;;;;;;5071336;28;20039;-82
2022/10/20 01:11:48;;;;;;;10.65;3.13;;;8.50;99.90;;;;;;5070557;28;20468;-82
2022/10/20 01:14:32;;;;;;;7.70;2.90;;;8.50;99.90;;;;;;4991019;28;20048;-82
2022/10/20 01:17:08;;;;;;;9.18;3.17;;;8.50;99.90;;;;;;5054320;28;20037;-82
2022/10/20 01:20:20;;;;;;;9.25;2.88;;;8.40;99.90;;;;;;5070964;28;20048;-82
2022/10/20 01:23:05;;;;;;;8.32;3.33;;;8.40;99.90;;;;;;4990007;28;20519;-82
2022/10/20 01:26:03;;;;;;;10.85;3.20;;;8.40;99.90;;;;;;4974324;28;20129;-82
2022/10/20 01:28:48;;;;;;;9.32;3.08;;;8.40;99.90;;;;;;4974533;28;20104;-82
2022/10/20 01:31:29;;;;;;;8.43;2.63;;;8.40;99.90;;;;;;4974010;28;20042;-82
2022/10/20 01:34:03;;;;;;;10.23;3.15;;;8.40;99.90;;;;;;4974464;28;20104;-82
2022/10/20 01:36:54;;;;;;;9.25;3.03;;;8.40;99.90;;;;;;4958172;28;20598;-82
2022/10/20 01:39:49;;;;;;;8.05;2.47;;;8.40;99.90;;;;;;4971450;28;20050;-82
2022/10/20 01:42:25;;;;;;;10.30;3.25;;;8.40;99.90;;;;;;4974005;28;20116;-82
2022/10/20 01:44:54;;;;;;;9.88;3.15;;;8.40;99.90;;;;;;4973958;28;20132;-82
2022/10/20 01:47:23;;;;;;;9.75;3.45;;;8.40;99.90;;;;;;4973915;28;20081;-82
2022/10/20 01:49:49;;;;;;;11.57;3.03;;;8.30;99.90;;;;;;4958063;28;20038;-82
2022/10/20 01:52:15;;;;;;;7.78;3.25;;;8.30;99.90;;;;;;4973652;28;20148;-82
2022/10/20 01:54:40;;;;;;;8.82;3.45;;;8.30;99.90;;;;;;5067789;28;20083;-82
2022/10/20 01:57:48;;;;;;;7.97;3.17;;;8.30;99.90;;;;;;5070421;28;20127;-82
2022/10/20 02:00:15;;;;;;;11.35;3.53;;;8.30;99.90;;;;;;5024157;28;20068;-82
2022/10/20 02:03:04;;;;;;;7.47;3.00;;;8.30;99.90;;;;;;5053444;28;20512;-82
2022/10/20 02:05:51;;;;;;;8.93;3.22;;;8.30;99.90;;;;;;5070380;28;20040;-82
2022/10/20 02:08:22;;;;;;;7.82;3.22;;;8.30;99.90;;;;;;5053624;28;20486;-82
2022/10/20 02:10:59;;;;;;;8.13;3.00;;;8.30;99.90;;;;;;5053717;28;20066;-82
2022/10/20 02:13:27;;;;;;;7.05;2.97;;;8.30;99.90;;;;;;5070433;28;20032;-82
2022/10/20 02:15:56;;;;;;;7.93;3.10;;;8.30;99.90;;;;;;5053625;28;20037;-82
2022/10/20 02:18:34;;;;;;;10.30;3.45;;;8.20;99.90;;;;;;5070305;28;20032;-82
2022/10/20 02:21:02;;;;;;;9.02;3.75;;;8.20;99.90;;;;;;5069861;28;20122;-82
2022/10/20 02:23:30;;;;;;;9.48;3.15;;;8.20;99.90;;;;;;5071855;28;20044;-82
2022/10/20 02:25:58;;;;;;;7.50;3.42;;;8.20;99.90;;;;;;5074363;28;20052;-82
2022/10/20 02:28:26;;;;;;;8.45;3.55;;;8.20;99.90;;;;;;5057874;28;20401;-82
2022/10/20 02:30:52;;;;;;;9.25;3.33;;;8.20;99.90;;;;;;5057257;28;20035;-82
2022/10/20 02:33:18;;;;;;;9.68;3.58;;;8.20;99.90;;;;;;5057211;28;20066;-82
2022/10/20 02:35:50;;;;;;;8.35;3.40;;;8.20;99.90;;;;;;5057513;28;20045;-82
2022/10/20 02:38:15;;;;;;;10.15;3.50;;;8.20;99.90;;;;;;5073987;28;20047;-82
2022/10/20 02:40:41;;;;;;;8.70;3.33;;;8.20;99.90;;;;;;5057257;28;20040;-82
2022/10/20 02:43:06;;;;;;;9.23;3.30;;;8.10;99.90;;;;;;5057067;28;20473;-82
2022/10/20 02:45:32;;;;;;;9.40;3.70;;;8.20;99.90;;;;;;5073882;28;20437;-82
2022/10/20 02:47:57;;;;;;;8.82;3.40;;;8.20;99.90;;;;;;5073940;28;20397;-82
2022/10/20 02:50:23;;;;;;;9.95;3.90;;;8.10;99.90;;;;;;5074055;28;20508;-82
2022/10/20 02:52:49;;;;;;;10.10;3.40;;;8.20;99.90;;;;;;5073255;28;20537;-82
2022/10/20 02:55:14;;;;;;;9.35;3.63;;;8.20;99.90;;;;;;5057173;28;20075;-82
2022/10/20 02:57:40;;;;;;;11.93;4.07;;;8.10;99.90;;;;;;5056965;28;20043;-82
2022/10/20 03:00:06;;;;;;;11.43;4.57;;;8.10;99.90;;;;;;5073431;28;20127;-82
2022/10/20 03:02:32;;;;;;;8.80;4.25;;;8.10;99.90;;;;;;5073366;28;20505;-82
2022/10/20 03:04:58;;;;;;;9.60;3.95;;;8.10;99.90;;;;;;5073434;28;20039;-82
2022/10/20 03:07:23;;;;;;;9.95;4.07;;;8.10;99.90;;;;;;5073501;28;20098;-82
2022/10/20 03:09:49;;;;;;;10.57;4.28;;;8.10;99.90;;;;;;5073282;28;20033;-82
2022/10/20 03:12:14;;;;;;;11.05;5.47;;;8.10;99.90;;;;;;5056407;28;20043;-82
2022/10/20 03:14:41;;;;;;;9.20;4.18;;;8.10;99.90;;;;;;5073307;28;20048;-82
2022/10/20 03:17:07;;;;;;;8.73;3.92;;;8.10;99.90;;;;;;5056542;28;20041;-82
2022/10/20 03:19:33;;;;;;;9.95;4.07;;;8.00;99.90;;;;;;5056654;28;20097;-82
2022/10/20 03:21:58;;;;;;;8.77;4.07;;;8.00;99.90;;;;;;5056217;28;20032;-82
2022/10/20 03:24:24;;;;;;;10.25;4.82;;;8.00;99.90;;;;;;5073149;28;20044;-82
2022/10/20 03:26:49;;;;;;;9.48;4.93;;;8.00;99.90;;;;;;5073185;28;20072;-82
2022/10/20 03:29:15;;;;;;;9.32;4.45;;;8.00;99.90;;;;;;5073321;28;20047;-82
2022/10/20 03:31:41;;;;;;;11.63;4.78;;;8.00;99.90;;;;;;5056124;28;20537;-82
2022/10/20 03:34:06;;;;;;;12.70;4.80;;;8.00;99.90;;;;;;5056397;28;20041;-82
2022/10/20 03:36:32;;;;;;;10.43;4.53;;;8.00;99.90;;;;;;5072429;28;20041;-82
2022/10/20 03:38:57;;;;;;;12.73;4.90;;;8.00;99.90;;;;;;5072980;28;20040;-82
2022/10/20 03:41:23;;;;;;;10.85;4.70;;;8.00;99.90;;;;;;5072490;28;20115;-82
2022/10/20 03:43:48;;;;;;;11.07;5.13;;;8.00;99.90;;;;;;5072871;28;20119;-82
2022/10/20 03:46:14;;;;;;;11.02;4.97;;;8.00;99.90;;;;;;5072643;28;20111;-82
2022/10/20 03:48:40;;;;;;;11.15;5.40;;;8.00;99.90;;;;;;5072820;28;20032;-81
2022/10/20 03:51:07;;;;;;;10.13;5.03;;;7.90;99.90;;;;;;5072357;28;20047;-82
2022/10/20 03:53:33;;;;;;;9.73;4.95;;;7.90;99.90;;;;;;5072684;28;20115;-82
2022/10/20 03:56:03;;;;;;;9.73;5.30;;;7.90;99.90;;;;;;5072574;28;20067;-82
2022/10/20 03:58:29;;;;;;;10.57;5.35;;;7.90;99.90;;;;;;5072669;28;20040;-82
2022/10/20 04:00:54;;;;;;;9.98;5.60;;;7.90;99.90;;;;;;5071927;28;20049;-82
2022/10/20 04:03:20;;;;;;;11.35;5.72;;;7.90;99.90;;;;;;5072748;28;20094;-82
2022/10/20 04:05:46;;;;;;;12.40;5.97;;;7.90;99.90;;;;;;5072450;28;20486;-82
2022/10/20 04:08:11;;;;;;;9.95;5.15;;;7.90;99.90;;;;;;5055800;28;20045;-82
2022/10/20 04:10:37;;;;;;;11.82;5.68;;;7.90;99.90;;;;;;5055664;28;20036;-82
2022/10/20 04:13:03;;;;;;;10.07;5.47;;;7.90;99.90;;;;;;5072295;28;20036;-82
2022/10/20 04:15:29;;;;;;;11.73;5.78;;;7.90;99.90;;;;;;5055487;28;20548;-82
2022/10/20 04:17:55;;;;;;;11.82;6.55;;;7.90;99.90;;;;;;5072137;28;20391;-82
2022/10/20 04:20:20;;;;;;;11.45;6.18;;;7.90;99.90;;;;;;5055474;28;20043;-82
2022/10/20 04:22:46;;;;;;;13.40;6.22;;;7.90;99.90;;;;;;5071783;28;20041;-82
2022/10/20 04:25:11;;;;;;;12.40;6.68;;;7.90;99.90;;;;;;5072029;28;20040;-82
2022/10/20 04:27:38;;;;;;;11.35;6.13;;;7.90;99.90;;;;;;5072272;28;20041;-82
2022/10/20 04:30:04;;;;;;;11.90;6.28;;;7.90;99.90;;;;;;5055041;28;20050;-82
2022/10/20 04:32:30;;;;;;;13.30;6.97;;;7.90;99.90;;;;;;5071597;28;20043;-82
2022/10/20 04:34:56;;;;;;;13.73;7.07;;;7.90;99.90;;;;;;5071869;28;20040;-82
2022/10/20 04:37:21;;;;;;;11.38;6.55;;;7.80;99.90;;;;;;5071827;28;20468;-82
2022/10/20 04:39:47;;;;;;;12.98;6.57;;;7.90;99.90;;;;;;5071717;28;20079;-82
2022/10/20 04:42:12;;;;;;;12.07;6.60;;;7.80;99.90;;;;;;5071649;28;20079;-82
2022/10/20 04:44:38;;;;;;;12.05;6.38;;;7.90;99.90;;;;;;5071391;28;20418;-82
2022/10/20 04:47:03;;;;;;;12.73;7.13;;;7.90;99.90;;;;;;5070680;28;20062;-82
2022/10/20 04:49:29;;;;;;;11.25;6.40;;;7.80;99.90;;;;;;5071531;28;20041;-82
2022/10/20 04:51:54;;;;;;;13.10;6.65;;;7.80;99.90;;;;;;5071125;28;20043;-82
2022/10/20 04:54:20;;;;;;;15.88;7.13;;;7.80;99.90;;;;;;5054806;28;20082;-82
2022/10/20 04:56:45;;;;;;;14.40;7.00;;;7.80;99.90;;;;;;5072680;28;20079;-82
2022/10/20 04:59:11;;;;;;;12.10;6.45;;;7.80;99.90;;;;;;5071377;28;20052;-82
2022/10/20 05:01:36;;;;;;;11.18;6.47;;;7.80;99.90;;;;;;5054626;28;20044;-82
2022/10/20 05:04:02;;;;;;;15.70;7.50;;;7.80;99.90;;;;;;5054868;28;20044;-82
2022/10/20 05:06:32;;;;;;;14.00;7.50;;;7.80;99.90;;;;;;5054617;28;20036;-82
2022/10/20 05:09:00;;;;;;;14.00;7.38;;;7.80;99.90;;;;;;5068720;28;20040;-82
2022/10/20 05:11:28;;;;;;;12.00;6.85;;;7.70;99.90;;;;;;5069369;28;20048;-82
2022/10/20 05:13:54;;;;;;;12.38;7.22;;;7.80;99.90;;;;;;5069508;28;20032;-82
2022/10/20 05:16:20;;;;;;;13.57;6.72;;;7.80;99.90;;;;;;5069556;28;20040;-82
2022/10/20 05:18:47;;;;;;;13.25;7.13;;;7.80;99.90;;;;;;5069842;28;20052;-82
2022/10/20 05:21:19;;;;;;;13.77;7.15;;;7.80;99.90;;;;;;5068883;28;20064;-82
2022/10/20 05:23:45;;;;;;;12.15;6.93;;;7.70;99.90;;;;;;5069297;28;20040;-82
2022/10/20 05:26:15;;;;;;;13.45;7.65;;;7.70;99.90;;;;;;5069193;28;20032;-82
2022/10/20 05:28:46;;;;;;;12.50;7.47;;;7.70;99.90;;;;;;5069328;28;20043;-82
2022/10/20 05:31:12;;;;;;;14.68;7.47;;;7.70;99.90;;;;;;5052121;28;20410;-82
2022/10/20 05:33:38;;;;;;;12.63;7.35;;;7.70;99.90;;;;;;5069524;28;20047;-82
2022/10/20 05:36:13;;;;;;;12.27;7.20;;;7.70;99.90;;;;;;5052338;28;20139;-82
2022/10/20 05:38:39;;;;;;;13.52;7.35;;;7.70;99.90;;;;;;5069152;28;20119;-82
2022/10/20 05:41:10;;;;;;;13.88;8.27;;;7.70;99.90;;;;;;5069202;28;20037;-82
2022/10/20 05:43:36;;;;;;;13.98;7.88;;;7.70;99.90;;;;;;5069230;28;20513;-82
2022/10/20 05:46:03;;;;;;;14.80;7.47;;;7.70;99.90;;;;;;5069196;28;20083;-82
2022/10/20 05:48:29;;;;;;;13.43;7.32;;;7.70;99.90;;;;;;5069605;28;20371;-82
2022/10/20 05:50:54;;;;;;;13.73;7.80;;;7.70;99.90;;;;;;5069521;28;20043;-82
2022/10/20 05:53:20;;;;;;;12.45;7.20;;;7.70;99.90;;;;;;5052463;28;20028;-82
2022/10/20 05:55:45;;;;;;;15.52;7.82;;;7.70;99.90;;;;;;5069397;28;20045;-82
2022/10/20 05:58:11;;;;;;;12.63;7.93;;;7.70;99.90;;;;;;5069186;28;20048;-82
2022/10/20 06:00:41;;;;;;;14.18;7.70;;;7.70;99.90;;;;;;5070545;28;20033;-82
2022/10/20 06:03:07;;;;;;;13.13;8.02;;;7.70;99.90;;;;;;5052017;28;20749;-82
2022/10/20 06:05:32;;;;;;;13.85;8.35;;;7.70;99.90;;;;;;5069170;28;20092;-82
2022/10/20 06:07:58;;;;;;;14.07;8.60;;;7.70;99.90;;;;;;5069241;28;20599;-82
2022/10/20 06:10:23;;;;;;;13.90;7.72;;;7.70;99.90;;;;;;5069242;28;20376;-82
2022/10/20 06:12:49;;;;;;;13.77;8.18;;;7.70;99.90;;;;;;5066392;28;20044;-82
2022/10/20 06:15:15;;;;;;;14.85;8.10;;;7.70;99.90;;;;;;5069148;28;20076;-82
2022/10/20 06:17:41;;;;;;;15.35;8.18;;;7.70;99.90;;;;;;5069362;28;20188;-82
2022/10/20 06:20:06;;;;;;;15.43;8.50;;;7.70;99.90;;;;;;5069305;28;20037;-82
2022/10/20 06:22:32;;;;;;;14.40;7.75;;;7.70;99.90;;;;;;5051709;28;20555;-82
2022/10/20 06:24:57;;;;;;;14.30;8.52;;;7.70;99.90;;;;;;5069081;28;20041;-82
2022/10/20 06:27:23;;;;;;;18.52;8.32;;;7.70;99.90;;;;;;5052513;28;20044;-82
2022/10/20 06:29:48;;;;;;;14.30;8.73;;;7.60;99.90;;;;;;5070929;28;20032;-82
2022/10/20 06:32:17;;;;;;;16.63;8.43;;;7.70;99.90;;;;;;5070189;28;20033;-82
2022/10/20 06:34:42;;;;;;;16.58;9.45;;;7.60;99.90;;;;;;5069438;28;20119;-82
2022/10/20 06:37:08;;;;;;;13.90;8.13;;;7.60;99.90;;;;;;5069154;28;20118;-82
2022/10/20 06:39:34;;;;;;;12.73;8.38;;;7.70;99.90;;;;;;5068579;28;20079;-82
2022/10/20 06:42:00;;;;;;;17.77;9.85;;;7.70;99.90;;;;;;5068107;28;20084;-82
2022/10/20 06:44:26;;;;;;;15.73;9.15;;;7.70;99.90;;;;;;5052094;28;20044;-82
2022/10/20 06:46:52;;;;;;;13.02;7.82;;;7.70;99.90;;;;;;5069169;28;20044;-82
2022/10/20 06:49:18;;;;;;;13.50;8.70;;;7.70;99.90;;;;;;5069281;28;20040;-82
2022/10/20 06:51:44;;;;;;;15.38;8.88;;;7.70;99.90;;;;;;5068844;28;20127;-82
2022/10/20 06:54:09;;;;;;;14.90;8.13;;;7.70;99.90;;;;;;5069521;28;20500;-82
2022/10/20 06:56:36;;;;;;;14.48;8.90;;;7.70;99.90;;;;;;5069150;28;20540;-82
2022/10/20 06:59:02;;;;;;;13.48;8.40;;;7.70;99.90;;;;;;5052145;28;20050;-82
2022/10/20 07:01:30;;;;;;;16.63;8.55;;;7.70;99.90;;;;;;5068583;28;20044;-82
2022/10/20 07:03:59;;;;;;;17.20;8.50;;;7.70;99.90;;;;;;5068913;28;20041;-82
2022/10/20 07:06:33;;;;;;;14.05;8.43;;;7.80;99.90;;;;;;5051958;28;20029;-82
2022/10/20 07:08:59;;;;;;;14.57;8.93;;;7.80;99.90;;;;;;5052645;28;20082;-82
2022/10/20 07:11:27;;;;;;;15.60;9.32;;;7.80;99.90;;;;;;5071687;28;20032;-82
2022/10/20 07:13:53;;;;;;;17.45;8.93;;;7.90;99.90;;;;;;5056259;28;20509;-82
2022/10/20 07:16:21;;;;;;;14.45;9.00;;;7.90;99.90;;;;;;5072904;28;20037;-82
2022/10/20 07:18:47;;;;;;;14.45;9.07;;;7.90;99.90;;;;;;5072284;28;20072;-82
2022/10/20 07:21:15;;;;;;;13.95;8.88;;;7.90;99.90;;;;;;5071893;28;20079;-82
2022/10/20 07:23:41;;;;;;;15.93;9.02;;;7.90;99.90;;;;;;5055740;28;20596;-82
2022/10/20 07:26:09;;;;;;;15.35;9.13;;;7.90;99.90;;;;;;5071819;28;20499;-82
2022/10/20 07:28:35;;;;;;;13.57;8.75;;;8.00;99.90;;;;;;5072721;28;20135;-82
2022/10/20 07:31:20;;;;;;;15.85;9.50;;;8.00;99.90;;;;;;5072425;28;20039;-82
2022/10/20 07:33:46;;;;;;;16.15;8.48;;;8.00;99.90;;;;;;5072462;28;20044;-82
2022/10/20 07:36:15;;;;;;;15.77;9.07;;;8.00;99.90;;;;;;5072322;28;20036;-82
2022/10/20 07:38:41;;;;;;;14.35;9.13;;;8.10;99.90;;;;;;5055296;28;20040;-82
2022/10/20 07:41:07;;;;;;;14.82;8.93;;;8.10;99.90;;;;;;5071766;28;20037;-82
2022/10/20 07:43:34;;;;;;;13.60;8.57;;;8.10;99.90;;;;;;5054729;28;20033;-82
2022/10/20 07:45:59;;;;;;;12.60;8.18;;;8.20;99.90;;;;;;5071519;28;20055;-82
2022/10/20 07:48:25;;;;;;;13.15;8.55;;;8.20;99.90;;;;;;5055369;28;20044;-82
2022/10/20 07:50:51;;;;;;;14.00;9.75;;;8.30;99.90;;;;;;5055398;28;20043;-82
2022/10/20 07:53:16;;;;;;;16.23;8.95;;;8.30;99.90;;;;;;5071899;28;20115;-82
2022/10/20 07:55:42;;;;;;;15.07;7.82;;;8.30;99.90;;;;;;5072092;28;20090;-82
2022/10/20 07:58:08;;;;;;;14.98;8.30;;;8.30;99.90;;;;;;5054056;28;20051;-82
2022/10/20 08:00:34;;;;;;;15.50;8.40;;;8.40;99.90;;;;;;5055418;28;20089;-82
2022/10/20 08:02:59;;;;;;;16.60;8.80;;;8.40;99.90;;;;;;5055692;28;20036;-82
2022/10/20 08:05:25;;;;;;;13.40;8.13;;;8.50;99.90;;;;;;5055714;28;20566;-82
2022/10/20 08:07:51;;;;;;;15.07;8.90;;;8.50;99.90;;;;;;5072485;28;20076;-83
2022/10/20 08:10:16;;;;;;;15.93;8.25;;;8.50;99.90;;;;;;5073597;28;20060;-82
2022/10/20 08:12:42;;;;;;;14.25;7.53;;;8.60;99.90;;;;;;5073243;28;20498;-82
2022/10/20 08:15:08;;;;;;;15.77;8.32;;;8.60;99.90;;;;;;5069101;28;20437;-82
2022/10/20 08:17:33;;;;;;;13.02;8.00;;;8.70;99.90;;;;;;5070951;28;20066;-82
2022/10/20 08:19:59;;;;;;;13.88;7.55;;;8.70;99.90;;;;;;5071426;28;20649;-82
2022/10/20 08:22:24;;;;;;;13.68;7.68;;;8.70;99.90;;;;;;5053927;28;20048;-82
2022/10/20 08:24:50;;;;;;;16.58;9.30;;;8.80;99.90;;;;;;5071380;28;20383;-82
2022/10/20 08:27:16;;;;;;;15.38;7.72;;;8.80;99.90;;;;;;5071384;28;20128;-82
2022/10/20 08:29:41;;;;;;;12.65;7.88;;;8.90;99.90;;;;;;5054761;28;20041;-82
2022/10/20 08:32:07;;;;;;;15.02;8.73;;;9.00;99.90;;;;;;5071375;28;20037;-82
2022/10/20 08:34:33;;;;;;;12.93;8.05;;;9.00;99.90;;;;;;5070809;28;20494;-82
2022/10/20 08:36:59;;;;;;;12.80;7.70;;;9.10;99.90;;;;;;5053947;28;20045;-82
2022/10/20 08:39:24;;;;;;;15.82;7.88;;;9.10;99.90;;;;;;5070661;28;20044;-82
2022/10/20 08:41:52;;;;;;;16.02;8.18;;;9.20;99.90;;;;;;5070327;28;20040;-82
2022/10/20 08:44:24;;;;;;;13.63;8.38;;;9.30;99.90;;;;;;5070930;28;20082;-82
2022/10/20 08:46:51;;;;;;;12.75;7.88;;;9.30;99.90;;;;;;5071376;28;20433;-82
2022/10/20 08:49:23;;;;;;;15.45;8.45;;;9.30;99.90;;;;;;5070950;28;20039;-82
2022/10/20 08:51:49;;;;;;;16.83;8.50;;;9.50;99.90;;;;;;5053118;28;20090;-82
2022/10/20 08:54:16;;;;;;;14.57;8.18;;;9.50;99.90;;;;;;5070590;28;20461;-82
2022/10/20 08:56:43;;;;;;;12.40;7.72;;;9.60;99.90;;;;;;5070019;28;20485;-82
2022/10/20 08:59:36;;;;;;;15.40;8.80;;;9.70;99.90;;;;;;5070449;28;20375;-82
2022/10/20 09:02:02;;;;;;;13.18;7.55;;;9.80;99.90;;;;;;5067570;28;20525;-83
2022/10/20 09:04:36;;;;;;;18.63;10.35;;;9.90;99.90;;;;;;5070740;28;20041;-82
2022/10/20 09:07:11;;;;;;;16.52;8.00;;;9.90;99.90;;;;;;5070725;28;20146;-83
2022/10/20 09:09:37;;;;;;;12.65;6.93;;;10.00;99.90;;;;;;5053507;28;20112;-82
2022/10/20 09:12:09;;;;;;;13.85;7.43;;;10.00;99.90;;;;;;5070002;28;20036;-82
2022/10/20 09:14:36;;;;;;;12.88;8.32;;;10.00;99.90;;;;;;5069658;28;20042;-83
2022/10/20 09:17:02;;;;;;;15.82;7.90;;;10.00;99.90;;;;;;5069310;28;20116;-82
2022/10/20 09:19:28;;;;;;;11.30;6.80;;;10.10;99.90;;;;;;5069546;28;20044;-82
2022/10/20 09:21:56;;;;;;;14.40;7.63;;;10.10;99.90;;;;;;5052883;28;20041;-82
2022/10/20 09:24:25;;;;;;;13.18;7.68;;;10.20;99.90;;;;;;5053155;28;20028;-82
2022/10/20 09:26:52;;;;;;;16.27;8.15;;;10.30;99.90;;;;;;5053114;28;20037;-83
2022/10/20 09:29:32;;;;;;;12.55;7.22;;;10.30;99.90;;;;;;5069744;28;20029;-82
2022/10/20 09:31:58;;;;;;;12.55;7.28;;;10.40;99.90;;;;;;5050306;28;20459;-83
2022/10/20 09:34:29;;;;;;;12.02;7.28;;;10.40;99.90;;;;;;5049686;28;20546;-82
2022/10/20 09:37:07;;;;;;;14.55;7.85;;;10.50;99.90;;;;;;5066375;28;20402;-82
2022/10/20 09:39:55;;;;;;;14.25;8.55;;;10.60;99.90;;;;;;5049407;28;20128;-82
2022/10/20 09:42:26;;;;;;;15.63;7.68;;;10.70;99.90;;;;;;5032921;28;20048;-82
2022/10/20 09:45:03;;;;;;;14.18;8.27;;;10.80;99.90;;;;;;5049780;28;20047;-82
2022/10/20 09:47:30;;;;;;;12.13;6.80;;;10.90;99.90;;;;;;5050394;28;20087;-82
2022/10/20 09:50:00;;;;;;;12.05;7.57;;;10.90;99.90;;;;;;5050090;28;20128;-82
2022/10/20 09:52:33;;;;;;;13.05;7.18;;;11.00;99.90;;;;;;5049972;28;20033;-83
2022/10/20 09:55:07;;;;;;;12.27;7.07;;;11.10;99.90;;;;;;5049612;28;20094;-82
2022/10/20 09:57:33;;;;;;;11.30;6.82;;;11.10;99.90;;;;;;5049353;28;20041;-83
2022/10/20 09:59:59;;;;;;;12.23;6.85;;;11.20;99.90;;;;;;5049341;28;20048;-82
2022/10/20 10:02:29;;;;;;;11.70;7.40;;;11.30;99.90;;;;;;5049082;28;20096;-83
2022/10/20 10:05:17;;;;;;;11.23;7.03;;;11.40;99.90;;;;;;5049814;28;20518;-82
2022/10/20 10:07:43;;;;;;;12.50;6.78;;;11.40;99.90;;;;;;5033355;28;20037;-83
2022/10/20 10:10:18;;;;;;;11.95;6.25;;;11.50;99.90;;;;;;5054851;28;20521;-83
2022/10/20 10:12:51;;;;;;;12.82;7.63;;;11.50;99.90;;;;;;5066629;28;20051;-82
2022/10/20 10:15:30;;;;;;;11.80;7.15;;;11.60;99.90;;;;;;5066606;28;20040;-82
2022/10/20 10:17:57;;;;;;;12.65;7.05;;;11.70;99.90;;;;;;5052053;28;20048;-82
2022/10/20 10:20:33;;;;;;;11.45;6.47;;;11.80;99.90;;;;;;5052663;28;20037;-82
2022/10/20 10:23:21;;;;;;;13.05;6.75;;;11.90;99.90;;;;;;5069012;28;20560;-83
2022/10/20 10:25:47;;;;;;;13.00;6.85;;;12.10;99.90;;;;;;5069417;28;20124;-83
2022/10/20 10:28:30;;;;;;;13.30;6.88;;;12.20;99.90;;;;;;5069366;28;20028;-82
2022/10/20 10:31:05;;;;;;;12.13;6.50;;;12.30;99.90;;;;;;5052629;28;20041;-82
2022/10/20 10:33:32;;;;;;;12.38;8.95;;;12.40;99.90;;;;;;5051210;28;20043;-82
2022/10/20 10:36:00;;;;;;;12.20;6.65;;;12.50;99.90;;;;;;5067955;28;20115;-83
2022/10/20 10:38:27;;;;;;;12.30;6.65;;;12.60;99.90;;;;;;5069028;28;20055;-83
2022/10/20 10:41:13;;;;;;;14.15;7.25;;;12.70;99.90;;;;;;5050656;28;20048;-83
2022/10/20 10:43:59;;;;;;;10.85;6.53;;;12.90;99.90;;;;;;5069348;28;20513;-83
2022/10/20 10:46:40;;;;;;;13.60;8.88;;;13.00;99.90;;;;;;5072436;28;20131;-83
2022/10/20 10:49:33;;;;;;;13.10;6.63;;;13.20;99.90;;;;;;5055789;28;20045;-83
2022/10/20 10:52:23;;;;;;;10.85;6.45;;;13.20;99.90;;;;;;5072581;28;20063;-83
2022/10/20 10:55:15;;;;;;;11.82;8.20;;;13.20;99.90;;;;;;5073247;28;20098;-83
2022/10/20 10:57:49;;;;;;;11.75;6.55;;;13.30;99.90;;;;;;5055886;28;20045;-82
2022/10/20 11:00:25;;;;;;;12.32;8.85;;;13.30;99.90;;;;;;5072596;28;20051;-83
2022/10/20 11:02:57;;;;;;;10.68;6.80;;;13.30;99.90;;;;;;5056133;28;20070;-83
2022/10/20 11:05:37;;;;;;;11.45;6.70;;;13.40;99.90;;;;;;5056456;28;20082;-83
2022/10/20 11:08:21;;;;;;;11.65;7.25;;;13.40;99.90;;;;;;5056194;28;20040;-83
2022/10/20 11:10:53;;;;;;;13.10;8.73;;;13.50;99.90;;;;;;5072049;28;20036;-83
2022/10/20 11:13:42;;;;;;;11.23;6.70;;;13.60;99.90;;;;;;5055463;28;20036;-83
2022/10/20 11:16:15;;;;;;;11.95;8.07;;;13.60;99.90;;;;;;5073430;28;20046;-83
2022/10/20 11:18:59;;;;;;;12.23;6.65;;;13.70;99.90;;;;;;5073287;28;20135;-83
2022/10/20 11:21:42;;;;;;;11.07;6.72;;;13.70;99.90;;;;;;5056246;28;20494;-83
2022/10/20 11:24:20;;;;;;;13.48;8.40;;;13.60;99.90;;;;;;5072949;28;20045;-83
2022/10/20 11:26:52;;;;;;;12.38;6.20;;;13.70;99.90;;;;;;5073534;28;20052;-83
2022/10/20 11:29:31;;;;;;;14.60;8.82;;;13.60;99.90;;;;;;5073169;28;20071;-83
2022/10/20 11:32:05;;;;;;;14.50;6.75;;;13.70;99.90;;;;;;5072840;28;20493;-83
2022/10/20 11:34:44;;;;;;;12.32;6.65;;;13.60;99.90;;;;;;5056512;28;20044;-83
2022/10/20 11:37:26;;;;;;;15.23;7.05;;;13.60;99.90;;;;;;5056628;28;20450;-83
2022/10/20 11:39:58;;;;;;;15.73;7.03;;;13.60;99.90;;;;;;5073349;28;20154;-83
2022/10/20 11:42:53;;;;;;;12.52;6.90;;;13.60;99.90;;;;;;5072751;28;20040;-83
2022/10/20 11:45:45;;;;;;;15.63;9.23;;;13.60;99.90;;;;;;5056113;28;20049;-83
2022/10/20 11:48:37;;;;;;;10.85;6.90;;;13.70;99.90;;;;;;5072835;28;20039;-83
2022/10/20 11:51:28;;;;;;;11.70;6.95;;;13.60;99.90;;;;;;5061995;28;20418;-83
2022/10/20 11:54:17;;;;;;;13.10;9.05;;;13.70;99.90;;;;;;5071460;28;20383;-83
2022/10/20 11:57:01;;;;;;;13.75;9.13;;;13.70;99.90;;;;;;5071604;28;20098;-83
2022/10/20 11:59:59;;;;;;;11.80;8.68;;;13.70;99.90;;;;;;5071612;28;20090;-83
2022/10/20 12:02:50;;;;;;;16.23;7.95;;;13.80;99.90;;;;;;5071404;28;20127;-83
2022/10/20 12:05:35;;;;;;;12.95;9.27;;;13.70;99.90;;;;;;5072269;28;20091;-83
2022/10/20 12:08:33;;;;;;;12.80;8.77;;;13.60;99.90;;;;;;5055147;28;20037;-83
2022/10/20 12:11:02;;;;;;;13.57;9.38;;;13.70;99.90;;;;;;5070903;28;20086;-83
2022/10/20 12:14:07;;;;;;;13.00;7.55;;;13.70;99.90;;;;;;5070865;28;20037;-83
2022/10/20 12:16:51;;;;;;;14.23;7.15;;;13.60;99.90;;;;;;5071851;28;20072;-83
2022/10/20 12:19:25;;;;;;;12.40;8.80;;;13.50;99.90;;;;;;5071408;28;20135;-83
2022/10/20 12:21:56;;;;;;;11.35;6.85;;;13.60;99.90;;;;;;5071904;28;20085;-83
2022/10/20 12:24:36;;;;;;;12.02;8.90;;;13.60;99.90;;;;;;5070316;28;20047;-83
2022/10/20 12:27:09;;;;;;;11.50;9.43;;;13.60;99.90;;;;;;5071837;28;20486;-83
2022/10/20 12:29:35;;;;;;;11.15;9.23;;;13.60;99.90;;;;;;5071931;28;20043;-83
2022/10/20 12:32:23;;;;;;;12.35;9.18;;;13.60;99.90;;;;;;5071884;28;20036;-83
2022/10/20 12:34:53;;;;;;;13.07;7.32;;;13.70;99.90;;;;;;5071978;28;20044;-83
2022/10/20 12:37:24;;;;;;;14.13;9.85;;;13.60;99.90;;;;;;5071250;28;20036;-83
2022/10/20 12:39:52;;;;;;;13.85;10.18;;;13.60;99.90;;;;;;5069433;28;20036;-83
2022/10/20 12:42:29;;;;;;;11.82;6.60;;;13.50;99.90;;;;;;5070912;28;20038;-82
2022/10/20 12:45:03;;;;;;;13.40;9.63;;;13.50;99.90;;;;;;5059701;28;20113;-83
2022/10/20 12:47:31;;;;;;;12.63;8.20;;;13.50;99.90;;;;;;5054112;28;20039;-83
2022/10/20 12:50:22;;;;;;;12.65;9.93;;;13.50;99.90;;;;;;5071141;28;20036;-83
2022/10/20 12:52:48;;;;;;;12.13;7.63;;;13.50;99.90;;;;;;5070461;28;20040;-82
2022/10/20 12:55:18;;;;;;;14.82;8.18;;;13.50;99.90;;;;;;5054216;28;20047;-83
2022/10/20 12:57:44;;;;;;;16.38;10.75;;;13.40;99.90;;;;;;5054814;28;20119;-83
2022/10/20 13:00:20;;;;;;;12.00;8.15;;;13.40;99.90;;;;;;5071303;28;20047;-83
2022/10/20 13:02:52;;;;;;;13.65;11.30;;;13.40;99.90;;;;;;5054453;28;20541;-83
2022/10/20 13:05:18;;;;;;;14.23;11.55;;;13.40;99.90;;;;;;5071284;28;20166;-82